Terminal Aerodrome Forecast
Issued by NWS

Home | Current Version | Previous Version | Text Only | Print | Product List | Glossary On
Versions: 1 2 3 4 5 6 7 8 9 10 11 12 13 14
619
FTUS43 KILX 251137
TAFCMI
TAF
KCMI 251137Z 2512/2612 20005KT P6SM SCT120
     FM251500 26007KT P6SM SCT035
      TEMPO 2516/2520 BKN040
     FM260100 31005KT P6SM SCT050 OVC250=

USA.gov is the U.S. government's official web portal to all federal, state and local government web resources and services.